Time,TemperatureF,DewpointF,PressureIn,WindDirection,WindDirectionDegrees,WindSpeedMPH,WindSpeedGustMPH,Humidity,HourlyPrecipIn,Conditions,Clouds,dailyrainin,SoftwareType,DateUTC
2013-03-07 00:01:00,41.0,38.0,30.23,North,355,0.0,0.0,88,0.00,,,0.00,,2013-03-07 06:01:00,
2013-03-07 00:11:00,41.0,38.0,30.23,North,355,0.0,0.0,88,0.00,,,0.00,,2013-03-07 06:11:00,
2013-03-07 00:21:00,41.0,38.0,30.24,North,355,0.0,0.0,88,0.00,,,0.00,,2013-03-07 06:21:00,
2013-03-07 00:32:00,40.0,37.0,30.25,North,355,0.0,0.0,88,0.00,,,0.00,,2013-03-07 06:32:00,
2013-03-07 00:42:00,40.0,37.0,30.25,North,355,0.0,0.0,88,0.00,,,0.00,,2013-03-07 06:42:00,
2013-03-07 00:52:00,40.0,37.0,30.26,North,355,0.0,1.0,88,0.00,,,0.00,,2013-03-07 06:52:00,
2013-03-07 01:01:00,40.0,37.0,30.26,North,355,0.0,0.0,89,0.00,,,0.00,,2013-03-07 07:01:00,
2013-03-07 01:11:00,40.0,37.0,30.26,North,355,0.0,0.0,89,0.00,,,0.00,,2013-03-07 07:11:00,
2013-03-07 01:21:00,39.0,36.0,30.26,North,355,0.0,0.0,88,0.00,,,0.00,,2013-03-07 07:21:00,
2013-03-07 01:32:00,39.0,36.0,30.25,North,355,0.0,0.0,89,0.00,,,0.00,,2013-03-07 07:32:00,
2013-03-07 01:42:00,39.0,36.0,30.25,North,355,0.0,0.0,89,0.00,,,0.00,,2013-03-07 07:42:00,
2013-03-07 01:53:00,39.0,36.0,30.24,North,355,0.0,0.0,89,0.00,,,0.00,,2013-03-07 07:53:00,
2013-03-07 02:02:00,39.0,36.0,30.26,North,355,0.0,0.0,88,0.00,,,0.00,,2013-03-07 08:02:00,
2013-03-07 02:12:00,39.0,36.0,30.26,North,355,0.0,0.0,88,0.00,,,0.00,,2013-03-07 08:12:00,
2013-03-07 02:22:00,39.0,36.0,30.26,North,355,0.0,0.0,88,0.00,,,0.00,,2013-03-07 08:22:00,
2013-03-07 02:33:00,38.0,35.0,30.27,North,355,0.0,0.0,89,0.00,,,0.00,,2013-03-07 08:33:00,
2013-03-07 02:43:00,38.0,35.0,30.27,North,355,0.0,0.0,89,0.00,,,0.00,,2013-03-07 08:43:00,
2013-03-07 02:54:00,38.0,35.0,30.26,North,355,0.0,0.0,89,0.00,,,0.00,,2013-03-07 08:54:00,
2013-03-07 03:03:00,37.0,34.0,30.24,North,355,0.0,0.0,89,0.00,,,0.00,,2013-03-07 09:03:00,
2013-03-07 03:23:00,37.0,34.0,30.23,North,355,0.0,0.0,89,0.00,,,0.00,,2013-03-07 09:23:00,
2013-03-07 03:32:00,37.0,34.0,30.24,North,355,0.0,0.0,88,0.00,,,0.00,,2013-03-07 09:32:00,
2013-03-07 03:42:00,37.0,34.0,30.24,North,355,0.0,0.0,88,0.00,,,0.00,,2013-03-07 09:42:00,
2013-03-07 03:53:00,37.0,34.0,30.24,North,355,0.0,0.0,88,0.00,,,0.00,,2013-03-07 09:53:00,
2013-03-07 04:03:00,37.0,34.0,30.24,North,355,0.0,0.0,89,0.00,,,0.00,,2013-03-07 10:03:00,
2013-03-07 04:12:00,37.0,34.0,30.24,North,355,0.0,0.0,89,0.00,,,0.00,,2013-03-07 10:12:00,
2013-03-07 04:23:00,37.0,34.0,30.24,North,355,0.0,0.0,88,0.00,,,0.00,,2013-03-07 10:23:00,
2013-03-07 04:33:00,36.0,33.0,30.24,North,355,0.0,0.0,89,0.00,,,0.00,,2013-03-07 10:33:00,
2013-03-07 04:42:00,36.0,33.0,30.24,North,355,0.0,0.0,89,0.00,,,0.00,,2013-03-07 10:42:00,
2013-03-07 04:53:00,36.0,33.0,30.24,North,355,0.0,0.0,88,0.00,,,0.00,,2013-03-07 10:53:00,
2013-03-07 05:02:00,36.0,33.0,30.24,North,355,0.0,0.0,88,0.00,,,0.00,,2013-03-07 11:02:00,
2013-03-07 05:12:00,36.0,33.0,30.24,North,355,0.0,0.0,88,0.00,,,0.00,,2013-03-07 11:12:00,
2013-03-07 05:23:00,36.0,33.0,30.25,North,355,0.0,0.0,88,0.00,,,0.00,,2013-03-07 11:23:00,
2013-03-07 05:33:00,36.0,33.0,30.25,North,355,0.0,0.0,88,0.00,,,0.00,,2013-03-07 11:33:00,
2013-03-07 05:42:00,36.0,33.0,30.25,North,355,0.0,0.0,88,0.00,,,0.00,,2013-03-07 11:42:00,
2013-03-07 05:54:00,35.0,32.0,30.25,North,355,0.0,0.0,88,0.00,,,0.00,,2013-03-07 11:54:00,
2013-03-07 06:02:00,35.0,32.0,30.26,North,355,0.0,0.0,88,0.00,,,0.00,,2013-03-07 12:02:00,
2013-03-07 06:12:00,35.0,32.0,30.26,North,355,0.0,0.0,88,0.00,,,0.00,,2013-03-07 12:12:00,
2013-03-07 06:22:00,35.0,32.0,30.26,North,355,0.0,0.0,88,0.00,,,0.00,,2013-03-07 12:22:00,
2013-03-07 06:33:00,35.0,32.0,30.26,North,355,0.0,0.0,88,0.00,,,0.00,,2013-03-07 12:33:00,
2013-03-07 06:42:00,35.0,32.0,30.26,North,355,0.0,0.0,88,0.00,,,0.00,,2013-03-07 12:42:00,
2013-03-07 07:02:00,35.0,32.0,30.27,North,355,0.0,0.0,88,0.00,,,0.00,,2013-03-07 13:02:00,
2013-03-07 07:12:00,35.0,32.0,30.27,North,355,0.0,0.0,88,0.00,,,0.00,,2013-03-07 13:12:00,
2013-03-07 07:22:00,36.0,33.0,30.28,North,355,0.0,0.0,87,0.00,,,0.00,,2013-03-07 13:22:00,
2013-03-07 07:32:00,38.0,34.0,30.29,North,355,0.0,0.0,87,0.00,,,0.00,,2013-03-07 13:32:00,
2013-03-07 07:42:00,38.0,34.0,30.29,North,355,0.0,0.0,87,0.00,,,0.00,,2013-03-07 13:42:00,
2013-03-07 07:53:00,41.0,37.0,30.29,North,355,0.0,0.0,87,0.00,,,0.00,,2013-03-07 13:53:00,
2013-03-07 08:02:00,45.0,41.0,30.30,North,355,0.0,2.0,87,0.00,,,0.00,,2013-03-07 14:02:00,
2013-03-07 08:12:00,45.0,41.0,30.30,North,355,0.0,2.0,87,0.00,,,0.00,,2013-03-07 14:12:00,
2013-03-07 08:22:00,47.0,43.0,30.31,NNE,16,0.0,3.0,87,0.00,,,0.00,,2013-03-07 14:22:00,
2013-03-07 08:32:00,49.0,44.0,30.31,East,94,1.0,9.0,82,0.00,,,0.00,,2013-03-07 14:32:00,
2013-03-07 08:42:00,49.0,44.0,30.31,East,94,1.0,9.0,82,0.00,,,0.00,,2013-03-07 14:42:00,
2013-03-07 08:54:00,51.0,43.0,30.32,ESE,114,4.0,8.0,73,0.00,,,0.00,,2013-03-07 14:54:00,
2013-03-07 09:02:00,53.0,43.0,30.32,ESE,103,4.0,7.0,68,0.00,,,0.00,,2013-03-07 15:02:00,
2013-03-07 09:12:00,53.0,43.0,30.32,ESE,103,4.0,7.0,68,0.00,,,0.00,,2013-03-07 15:12:00,
2013-03-07 09:22:00,54.0,41.0,30.32,ESE,103,4.0,9.0,61,0.00,,,0.00,,2013-03-07 15:22:00,
2013-03-07 09:32:00,56.0,41.0,30.32,ESE,103,1.0,9.0,57,0.00,,,0.00,,2013-03-07 15:32:00,
2013-03-07 09:42:00,56.0,41.0,30.32,ESE,103,1.0,9.0,57,0.00,,,0.00,,2013-03-07 15:42:00,
2013-03-07 09:53:00,57.0,40.0,30.33,ESE,119,2.0,8.0,52,0.00,,,0.00,,2013-03-07 15:53:00,
2013-03-07 10:02:00,58.0,39.0,30.33,ESE,117,5.0,9.0,49,0.00,,,0.00,,2013-03-07 16:02:00,
2013-03-07 10:12:00,58.0,39.0,30.33,ESE,117,5.0,9.0,49,0.00,,,0.00,,2013-03-07 16:12:00,
2013-03-07 10:23:00,59.0,40.0,30.33,ESE,118,3.0,8.0,50,0.00,,,0.00,,2013-03-07 16:23:00,
2013-03-07 10:32:00,60.0,41.0,30.32,ESE,115,4.0,9.0,50,0.00,,,0.00,,2013-03-07 16:32:00,
2013-03-07 10:42:00,60.0,41.0,30.32,ESE,115,4.0,9.0,50,0.00,,,0.00,,2013-03-07 16:42:00,
2013-03-07 10:53:00,62.0,40.0,30.33,ESE,115,4.0,8.0,45,0.00,,,0.00,,2013-03-07 16:53:00,
2013-03-07 11:02:00,62.0,40.0,30.32,South,174,2.0,8.0,45,0.00,,,0.00,,2013-03-07 17:02:00,
2013-03-07 11:12:00,62.0,40.0,30.32,South,174,2.0,8.0,45,0.00,,,0.00,,2013-03-07 17:12:00,
2013-03-07 11:22:00,63.0,41.0,30.32,ESE,106,0.0,5.0,44,0.00,,,0.00,,2013-03-07 17:22:00,
2013-03-07 11:32:00,63.0,40.0,30.32,SE,137,3.0,8.0,42,0.00,,,0.00,,2013-03-07 17:32:00,
2013-03-07 11:43:00,63.0,40.0,30.32,SE,137,3.0,8.0,42,0.00,,,0.00,,2013-03-07 17:43:00,
2013-03-07 11:54:00,64.0,39.0,30.31,SE,142,3.0,8.0,40,0.00,,,0.00,,2013-03-07 17:54:00,
2013-03-07 12:03:00,64.0,39.0,30.30,SSE,167,4.0,7.0,40,0.00,,,0.00,,2013-03-07 18:03:00,
2013-03-07 12:12:00,64.0,39.0,30.30,SSE,167,4.0,7.0,40,0.00,,,0.00,,2013-03-07 18:12:00,
2013-03-07 12:22:00,64.0,37.0,30.30,SSE,149,2.0,9.0,36,0.00,,,0.00,,2013-03-07 18:22:00,
2013-03-07 12:32:00,64.0,39.0,30.29,SE,138,1.0,6.0,40,0.00,,,0.00,,2013-03-07 18:32:00,
2013-03-07 12:42:00,64.0,39.0,30.29,SE,138,1.0,6.0,40,0.00,,,0.00,,2013-03-07 18:42:00,
2013-03-07 12:53:00,64.0,39.0,30.28,SE,144,3.0,8.0,39,0.00,,,0.00,,2013-03-07 18:53:00,
2013-03-07 13:02:00,64.0,41.0,30.27,SE,138,4.0,7.0,43,0.00,,,0.00,,2013-03-07 19:02:00,
2013-03-07 13:12:00,64.0,41.0,30.27,SE,138,4.0,7.0,43,0.00,,,0.00,,2013-03-07 19:12:00,
2013-03-07 13:23:00,64.0,39.0,30.27,SSE,147,1.0,7.0,39,0.00,,,0.00,,2013-03-07 19:23:00,
2013-03-07 13:34:00,65.0,39.0,30.27,SE,137,1.0,8.0,38,0.00,,,0.00,,2013-03-07 19:34:00,
2013-03-07 13:43:00,65.0,39.0,30.27,SE,137,1.0,8.0,38,0.00,,,0.00,,2013-03-07 19:43:00,
2013-03-07 13:53:00,65.0,41.0,30.26,SSE,155,4.0,8.0,41,0.00,,,0.00,,2013-03-07 19:53:00,
2013-03-07 14:02:00,66.0,40.0,30.25,ESE,118,4.0,10.0,38,0.00,,,0.00,,2013-03-07 20:02:00,
2013-03-07 14:13:00,66.0,40.0,30.25,ESE,118,4.0,10.0,38,0.00,,,0.00,,2013-03-07 20:13:00,
2013-03-07 14:22:00,66.0,40.0,30.24,SSE,150,3.0,9.0,39,0.00,,,0.00,,2013-03-07 20:22:00,
2013-03-07 14:32:00,66.0,42.0,30.24,SE,126,1.0,6.0,41,0.00,,,0.00,,2013-03-07 20:32:00,
2013-03-07 14:42:00,66.0,42.0,30.24,SE,126,1.0,6.0,41,0.00,,,0.00,,2013-03-07 20:42:00,
2013-03-07 14:54:00,65.0,39.0,30.24,SE,136,2.0,8.0,38,0.00,,,0.00,,2013-03-07 20:54:00,
2013-03-07 15:02:00,67.0,42.0,30.24,ESE,121,3.0,8.0,40,0.00,,,0.00,,2013-03-07 21:02:00,
2013-03-07 15:12:00,67.0,42.0,30.24,ESE,121,3.0,8.0,40,0.00,,,0.00,,2013-03-07 21:12:00,
2013-03-07 15:22:00,66.0,40.0,30.23,ESE,123,3.0,8.0,38,0.00,,,0.00,,2013-03-07 21:22:00,
2013-03-07 15:32:00,66.0,39.0,30.23,SSE,151,3.0,7.0,37,0.00,,,0.00,,2013-03-07 21:32:00,
2013-03-07 15:42:00,66.0,39.0,30.23,SSE,151,3.0,7.0,37,0.00,,,0.00,,2013-03-07 21:42:00,
2013-03-07 15:53:00,67.0,39.0,30.22,SE,135,5.0,8.0,36,0.00,,,0.00,,2013-03-07 21:53:00,
2013-03-07 16:01:00,67.0,38.0,30.22,SE,127,5.0,8.0,35,0.00,,,0.00,,2013-03-07 22:01:00,
2013-03-07 16:12:00,67.0,38.0,30.22,SE,127,5.0,8.0,35,0.00,,,0.00,,2013-03-07 22:12:00,
2013-03-07 16:22:00,67.0,39.0,30.22,SE,128,4.0,8.0,36,0.00,,,0.00,,2013-03-07 22:22:00,
2013-03-07 16:32:00,67.0,41.0,30.22,SE,146,3.0,8.0,38,0.00,,,0.00,,2013-03-07 22:32:00,
2013-03-07 16:42:00,67.0,41.0,30.22,SE,146,3.0,8.0,38,0.00,,,0.00,,2013-03-07 22:42:00,
2013-03-07 16:54:00,67.0,38.0,30.21,SE,125,3.0,5.0,34,0.00,,,0.00,,2013-03-07 22:54:00,
2013-03-07 17:22:00,66.0,39.0,30.21,SE,136,2.0,6.0,37,0.00,,,0.00,,2013-03-07 23:22:00,
2013-03-07 17:33:00,65.0,40.0,30.21,SE,132,2.0,5.0,40,0.00,,,0.00,,2013-03-07 23:33:00,
2013-03-07 17:43:00,65.0,40.0,30.21,SE,132,2.0,5.0,40,0.00,,,0.00,,2013-03-07 23:43:00,
2013-03-07 17:54:00,65.0,39.0,30.21,SE,128,1.0,5.0,39,0.00,,,0.00,,2013-03-07 23:54:00,
2013-03-07 18:03:00,64.0,39.0,30.21,SE,128,2.0,4.0,40,0.00,,,0.00,,2013-03-08 00:03:00,
2013-03-07 18:12:00,64.0,39.0,30.21,SE,128,2.0,4.0,40,0.00,,,0.00,,2013-03-08 00:12:00,
2013-03-07 18:23:00,63.0,40.0,30.21,SE,128,0.0,2.0,42,0.00,,,0.00,,2013-03-08 00:23:00,
2013-03-07 18:33:00,62.0,43.0,30.22,SE,128,0.0,0.0,50,0.00,,,0.00,,2013-03-08 00:33:00,
2013-03-07 18:43:00,62.0,43.0,30.22,SE,128,0.0,0.0,50,0.00,,,0.00,,2013-03-08 00:43:00,
2013-03-07 18:53:00,59.0,45.0,30.22,SE,128,0.0,0.0,59,0.00,,,0.00,,2013-03-08 00:53:00,
2013-03-07 19:02:00,56.0,44.0,30.22,SE,128,0.0,0.0,65,0.00,,,0.00,,2013-03-08 01:02:00,
2013-03-07 19:11:00,56.0,44.0,30.22,SE,128,0.0,0.0,65,0.00,,,0.00,,2013-03-08 01:11:00,
2013-03-07 19:21:00,54.0,45.0,30.22,SE,128,0.0,0.0,72,0.00,,,0.00,,2013-03-08 01:21:00,
2013-03-07 19:32:00,51.0,43.0,30.22,SE,128,0.0,0.0,75,0.00,,,0.00,,2013-03-08 01:32:00,
2013-03-07 19:42:00,51.0,43.0,30.22,SE,128,0.0,0.0,75,0.00,,,0.00,,2013-03-08 01:42:00,
2013-03-07 19:52:00,50.0,44.0,30.22,SE,128,0.0,0.0,79,0.00,,,0.00,,2013-03-08 01:52:00,
2013-03-07 20:01:00,48.0,43.0,30.22,SE,128,0.0,0.0,82,0.00,,,0.00,,2013-03-08 02:01:00,
2013-03-07 20:11:00,47.0,42.0,30.22,SE,128,0.0,0.0,83,0.00,,,0.00,,2013-03-08 02:11:00,
2013-03-07 20:21:00,47.0,42.0,30.22,SE,128,0.0,0.0,83,0.00,,,0.00,,2013-03-08 02:21:00,
2013-03-07 20:32:00,47.0,43.0,30.23,SE,128,0.0,1.0,85,0.00,,,0.00,,2013-03-08 02:32:00,
2013-03-07 20:42:00,47.0,43.0,30.23,SE,128,0.0,1.0,85,0.00,,,0.00,,2013-03-08 02:42:00,
2013-03-07 20:53:00,46.0,42.0,30.23,SE,128,0.0,0.0,85,0.00,,,0.00,,2013-03-08 02:53:00,
2013-03-07 21:02:00,45.0,41.0,30.23,SE,128,0.0,0.0,86,0.00,,,0.00,,2013-03-08 03:02:00,
2013-03-07 21:12:00,45.0,41.0,30.23,SE,128,0.0,0.0,86,0.00,,,0.00,,2013-03-08 03:12:00,
2013-03-07 21:22:00,45.0,41.0,30.23,SE,128,0.0,0.0,87,0.00,,,0.00,,2013-03-08 03:22:00,
2013-03-07 21:32:00,44.0,40.0,30.23,SE,128,0.0,0.0,87,0.00,,,0.00,,2013-03-08 03:32:00,
2013-03-07 21:42:00,44.0,40.0,30.23,SE,128,0.0,0.0,87,0.00,,,0.00,,2013-03-08 03:42:00,
2013-03-07 21:53:00,44.0,41.0,30.24,SE,128,0.0,0.0,88,0.00,,,0.00,,2013-03-08 03:53:00,
2013-03-07 22:01:00,43.0,40.0,30.24,SE,128,0.0,0.0,88,0.00,,,0.00,,2013-03-08 04:01:00,
2013-03-07 22:11:00,43.0,40.0,30.24,SE,128,0.0,0.0,88,0.00,,,0.00,,2013-03-08 04:11:00,
2013-03-07 22:21:00,43.0,40.0,30.24,SE,128,0.0,0.0,88,0.00,,,0.00,,2013-03-08 04:21:00,
2013-03-07 22:32:00,42.0,39.0,30.24,SE,128,0.0,0.0,88,0.00,,,0.00,,2013-03-08 04:32:00,
2013-03-07 22:42:00,42.0,39.0,30.24,SE,128,0.0,0.0,88,0.00,,,0.00,,2013-03-08 04:42:00,
2013-03-07 22:52:00,42.0,39.0,30.23,SE,128,0.0,0.0,88,0.00,,,0.00,,2013-03-08 04:52:00,
2013-03-07 23:02:00,42.0,39.0,30.23,SE,128,0.0,0.0,88,0.00,,,0.00,,2013-03-08 05:02:00,
2013-03-07 23:12:00,42.0,39.0,30.23,SE,128,0.0,0.0,88,0.00,,,0.00,,2013-03-08 05:12:00,
2013-03-07 23:22:00,42.0,39.0,30.23,SE,128,0.0,0.0,88,0.00,,,0.00,,2013-03-08 05:22:00,
2013-03-07 23:32:00,41.0,38.0,30.22,SE,128,0.0,0.0,88,0.00,,,0.00,,2013-03-08 05:32:00,
2013-03-07 23:42:00,41.0,38.0,30.22,SE,128,0.0,0.0,88,0.00,,,0.00,,2013-03-08 05:42:00,
2013-03-07 23:52:00,41.0,38.0,30.22,SE,128,0.0,0.0,88,0.00,,,0.00,,2013-03-08 05:52:00,